Time;durP1;ratioP1;P1;durP2;ratioP2;P2;SDS_P1;SDS_P2;PMS_P1;PMS_P2;Temp;Humidity;BMP_temperature;BMP_pressure;BME280_temperature;BME280_humidity;BME280_pressure;Samples;Min_cycle;Max_cycle;Signal;HPM_P1;HPM_P2
2022/08/16 00:00:13;;;;;;;;;;;16.20;99.90;;;;;;5124639;27;19912;-56
2022/08/16 00:02:55;;;;;;;;;;;16.20;99.90;;;;;;5171645;27;19918;-56
2022/08/16 00:05:36;;;;;;;;;;;16.20;99.90;;;;;;5125193;27;19945;-56
2022/08/16 00:08:15;;;;;;;;;;;16.20;99.90;;;;;;5125101;27;20293;-56
2022/08/16 00:10:55;;;;;;;;;;;16.20;99.90;;;;;;5124833;27;19922;-56
2022/08/16 00:13:35;;;;;;;;;;;16.20;99.90;;;;;;5125403;27;20373;-56
2022/08/16 00:16:15;;;;;;;;;;;16.20;99.90;;;;;;5125656;27;19912;-56
2022/08/16 00:18:55;;;;;;;;;;;16.10;99.90;;;;;;5124846;27;19949;-56
2022/08/16 00:21:35;;;;;;;;;;;16.10;99.90;;;;;;5105637;27;19919;-56
2022/08/16 00:24:15;;;;;;;;;;;16.10;99.90;;;;;;5106348;27;20300;-56
2022/08/16 00:26:56;;;;;;;;;;;16.10;99.90;;;;;;5100475;27;19916;-55
2022/08/16 00:29:36;;;;;;;;;;;16.10;99.90;;;;;;5090122;27;19916;-56
2022/08/16 00:32:15;;;;;;;;;;;16.10;99.90;;;;;;5118148;27;20324;-56
2022/08/16 00:34:57;;;;;;;;;;;16.10;99.90;;;;;;5124369;27;19918;-56
2022/08/16 00:37:37;;;;;;;;;;;16.10;99.90;;;;;;5083604;28;19917;-61
2022/08/16 00:40:19;;;;;;;;;;;16.10;99.90;;;;;;5123705;27;20338;-55
2022/08/16 00:43:00;;;;;;;;;;;16.10;99.90;;;;;;5125279;27;19911;-56
2022/08/16 00:45:41;;;;;;;;;;;15.90;99.90;;;;;;5125021;27;20282;-56
2022/08/16 00:48:21;;;;;;;;;;;15.90;99.90;;;;;;5125511;27;19915;-58
2022/08/16 00:51:01;;;;;;;;;;;15.80;99.90;;;;;;5124996;27;19915;-56
2022/08/16 00:53:40;;;;;;;;;;;15.60;99.90;;;;;;5125426;27;19912;-56
2022/08/16 00:56:22;;;;;;;;;;;15.40;99.90;;;;;;5105188;27;19912;-55
2022/08/16 00:59:02;;;;;;;;;;;15.30;99.90;;;;;;5103702;27;19950;-56
2022/08/16 01:01:43;;;;;;;;;;;15.30;99.90;;;;;;5125786;27;19916;-56
2022/08/16 01:04:24;;;;;;;;;;;15.20;99.90;;;;;;5125350;27;19911;-56
2022/08/16 01:07:05;;;;;;;;;;;15.00;99.90;;;;;;5125041;27;19945;-56
2022/08/16 01:09:46;;;;;;;;;;;14.90;99.90;;;;;;5124345;27;19919;-56
2022/08/16 01:12:26;;;;;;;;;;;14.70;99.90;;;;;;5117307;27;19933;-56
2022/08/16 01:15:06;;;;;;;;;;;14.60;99.90;;;;;;5124986;27;20127;-56
2022/08/16 01:17:47;;;;;;;;;;;14.50;99.90;;;;;;5124458;27;19930;-56
2022/08/16 01:20:27;;;;;;;;;;;14.30;99.90;;;;;;5128030;22;19928;-55
2022/08/16 01:23:12;;;;;;;;;;;14.30;99.90;;;;;;5125053;27;20432;-56
2022/08/16 01:25:53;;;;;;;;;;;14.30;99.90;;;;;;5124669;27;19912;-56
2022/08/16 01:28:34;;;;;;;;;;;14.20;99.90;;;;;;5124902;27;20347;-56
2022/08/16 01:31:15;;;;;;;;;;;14.20;99.90;;;;;;5125823;27;20372;-56
2022/08/16 01:33:56;;;;;;;;;;;14.10;99.90;;;;;;5124964;27;19911;-56
2022/08/16 01:36:37;;;;;;;;;;;14.10;99.90;;;;;;5104170;27;19926;-54
2022/08/16 01:39:17;;;;;;;;;;;14.00;99.90;;;;;;5124164;27;19912;-54
2022/08/16 01:41:58;;;;;;;;;;;13.90;99.90;;;;;;5124382;27;20590;-56
2022/08/16 01:44:38;;;;;;;;;;;13.90;99.90;;;;;;5106492;27;20365;-56
2022/08/16 01:47:19;;;;;;;;;;;13.90;99.90;;;;;;5125033;27;19912;-56
2022/08/16 01:50:00;;;;;;;;;;;13.70;99.90;;;;;;5077864;28;20291;-56
2022/08/16 01:52:40;;;;;;;;;;;13.70;99.90;;;;;;5124406;27;20307;-56
2022/08/16 01:55:25;;;;;;;;;;;13.60;99.90;;;;;;5125388;27;19916;-55
2022/08/16 01:58:08;;;;;;;;;;;13.60;99.90;;;;;;5104554;27;19912;-55
2022/08/16 02:00:48;;;;;;;;;;;13.50;99.90;;;;;;5111504;27;19922;-54
2022/08/16 02:03:28;;;;;;;;;;;13.50;99.90;;;;;;5125074;27;19920;-56
2022/08/16 02:06:08;;;;;;;;;;;13.60;99.90;;;;;;5125096;27;19912;-56
2022/08/16 02:08:48;;;;;;;;;;;13.60;99.90;;;;;;5103558;27;19926;-55
2022/08/16 02:11:28;;;;;;;;;;;13.50;99.90;;;;;;5124671;27;19919;-55
2022/08/16 02:14:09;;;;;;;;;;;13.40;99.90;;;;;;5125579;27;20280;-56
2022/08/16 02:16:50;;;;;;;;;;;13.50;99.90;;;;;;5104890;27;19945;-55
2022/08/16 02:19:31;;;;;;;;;;;13.40;99.90;;;;;;5124035;27;19912;-55
2022/08/16 02:22:13;;;;;;;;;;;13.40;99.90;;;;;;5125685;27;19927;-56
2022/08/16 02:24:53;;;;;;;;;;;13.40;99.90;;;;;;5105123;27;20345;-56
2022/08/16 02:27:33;;;;;;;;;;;13.50;99.90;;;;;;5104965;27;19916;-56
2022/08/16 02:30:15;;;;;;;;;;;13.50;99.90;;;;;;5104394;27;19926;-54
2022/08/16 02:32:54;;;;;;;;;;;13.50;99.90;;;;;;5104817;27;19912;-55
2022/08/16 02:35:36;;;;;;;;;;;13.40;99.90;;;;;;5124494;27;19912;-55
2022/08/16 02:38:17;;;;;;;;;;;13.40;99.90;;;;;;5125155;27;19911;-56
2022/08/16 02:41:00;;;;;;;;;;;13.30;99.90;;;;;;5123988;27;19911;-56
2022/08/16 02:43:40;;;;;;;;;;;13.30;99.90;;;;;;5124751;27;20320;-56
2022/08/16 02:46:20;;;;;;;;;;;13.30;99.90;;;;;;5124800;27;19915;-56
2022/08/16 02:49:00;;;;;;;;;;;13.30;99.90;;;;;;5124019;27;19915;-56
2022/08/16 02:51:42;;;;;;;;;;;13.30;99.90;;;;;;5124607;27;19911;-54
2022/08/16 02:54:22;;;;;;;;;;;13.20;99.90;;;;;;5124971;27;19919;-54
2022/08/16 02:57:03;;;;;;;;;;;13.20;99.90;;;;;;5124594;27;19911;-56
2022/08/16 02:59:44;;;;;;;;;;;13.10;99.90;;;;;;5124155;27;20402;-56
2022/08/16 03:02:24;;;;;;;;;;;13.00;99.90;;;;;;5084660;28;19913;-56
2022/08/16 03:05:04;;;;;;;;;;;12.90;99.90;;;;;;5125218;27;19915;-56
2022/08/16 03:07:45;;;;;;;;;;;12.90;99.90;;;;;;5124524;27;20377;-56
2022/08/16 03:10:24;;;;;;;;;;;12.80;99.90;;;;;;5094471;27;19931;-56
2022/08/16 03:13:05;;;;;;;;;;;12.70;99.90;;;;;;5122372;27;19912;-53
2022/08/16 03:15:48;;;;;;;;;;;12.70;99.90;;;;;;5124540;27;20281;-55
2022/08/16 03:18:29;;;;;;;;;;;12.70;99.90;;;;;;5083864;28;20407;-56
2022/08/16 03:21:11;;;;;;;;;;;12.60;99.90;;;;;;5104111;27;19953;-56
2022/08/16 03:23:53;;;;;;;;;;;12.60;99.90;;;;;;5124593;27;19922;-56
2022/08/16 03:26:33;;;;;;;;;;;12.60;99.90;;;;;;5085464;27;19912;-56
2022/08/16 03:29:14;;;;;;;;;;;12.60;99.90;;;;;;5124926;27;20283;-56
2022/08/16 03:31:54;;;;;;;;;;;12.60;99.90;;;;;;5125336;27;19918;-55
2022/08/16 03:34:36;;;;;;;;;;;12.70;99.90;;;;;;5125097;27;19915;-56
2022/08/16 03:37:16;;;;;;;;;;;12.70;99.90;;;;;;5124800;27;19912;-56
2022/08/16 03:39:55;;;;;;;;;;;12.70;99.90;;;;;;5124305;27;19912;-56
2022/08/16 03:42:37;;;;;;;;;;;12.60;99.90;;;;;;5164727;27;19968;-56
2022/08/16 03:45:17;;;;;;;;;;;12.50;99.90;;;;;;5125175;27;20304;-56
2022/08/16 03:47:58;;;;;;;;;;;12.40;99.90;;;;;;5125393;27;19945;-56
2022/08/16 03:50:38;;;;;;;;;;;12.40;99.90;;;;;;5112512;27;19912;-55
2022/08/16 03:53:19;;;;;;;;;;;12.40;99.90;;;;;;5125287;27;20111;-56
2022/08/16 03:55:59;;;;;;;;;;;12.40;99.90;;;;;;5124939;27;19919;-56
2022/08/16 03:58:39;;;;;;;;;;;12.40;99.90;;;;;;5125340;27;19918;-56
2022/08/16 04:01:21;;;;;;;;;;;12.40;99.90;;;;;;5162586;27;19911;-56
2022/08/16 04:04:02;;;;;;;;;;;12.40;99.90;;;;;;5125983;27;19945;-56
2022/08/16 04:06:43;;;;;;;;;;;12.30;99.90;;;;;;5104328;27;19930;-55
2022/08/16 04:09:23;;;;;;;;;;;12.20;99.90;;;;;;5123623;27;19931;-56
2022/08/16 04:12:03;;;;;;;;;;;12.20;99.90;;;;;;5104827;27;19916;-56
2022/08/16 04:14:44;;;;;;;;;;;12.20;99.90;;;;;;5104673;27;19926;-56
2022/08/16 04:17:24;;;;;;;;;;;12.30;99.90;;;;;;5125133;27;19918;-56
2022/08/16 04:20:07;;;;;;;;;;;12.30;99.90;;;;;;5124784;27;19916;-56
2022/08/16 04:22:47;;;;;;;;;;;12.30;99.90;;;;;;5104779;27;19954;-56
2022/08/16 04:25:27;;;;;;;;;;;12.40;99.90;;;;;;5126201;27;19915;-56
2022/08/16 04:28:07;;;;;;;;;;;12.50;99.90;;;;;;5104646;27;20315;-56
2022/08/16 04:30:48;;;;;;;;;;;12.70;99.90;;;;;;5124431;27;19911;-56
2022/08/16 04:33:28;;;;;;;;;;;12.70;99.90;;;;;;5125468;27;19912;-56
2022/08/16 04:36:11;;;;;;;;;;;12.80;99.90;;;;;;5125272;27;19919;-56
2022/08/16 04:38:51;;;;;;;;;;;12.80;99.90;;;;;;5145343;27;19916;-55
2022/08/16 04:41:32;;;;;;;;;;;12.80;99.90;;;;;;5124307;27;19945;-53
2022/08/16 04:44:14;;;;;;;;;;;12.80;99.90;;;;;;5104977;27;19915;-56
2022/08/16 04:46:54;;;;;;;;;;;12.80;99.90;;;;;;5125115;27;20369;-56
2022/08/16 04:49:35;;;;;;;;;;;12.90;99.90;;;;;;5124633;27;19916;-56
2022/08/16 04:52:15;;;;;;;;;;;13.10;99.90;;;;;;5125451;27;19911;-55
2022/08/16 04:54:55;;;;;;;;;;;13.20;99.90;;;;;;5106256;27;20459;-56
2022/08/16 04:57:35;;;;;;;;;;;13.40;99.90;;;;;;5104511;27;19926;-56
2022/08/16 05:00:18;;;;;;;;;;;13.80;99.90;;;;;;5116649;27;19916;-56
2022/08/16 05:03:00;;;;;;;;;;;14.60;99.90;;;;;;5125524;27;19911;-56
2022/08/16 05:05:46;;;;;;;;;;;15.30;99.90;;;;;;5125305;27;19992;-56
2022/08/16 05:08:29;;;;;;;;;;;16.00;99.90;;;;;;5104351;27;19926;-56
2022/08/16 05:11:14;;;;;;;;;;;16.20;99.90;;;;;;5161426;27;19914;-56
2022/08/16 05:13:54;;;;;;;;;;;16.00;99.90;;;;;;5105382;27;19931;-54
2022/08/16 05:16:37;;;;;;;;;;;15.80;99.90;;;;;;5124867;27;19923;-56
2022/08/16 05:19:24;;;;;;;;;;;15.80;99.90;;;;;;5103547;27;20188;-54
2022/08/16 05:22:28;;;;;;;;;;;15.70;99.90;;;;;;5104809;27;19923;-56
2022/08/16 05:25:12;;;;;;;;;;;15.80;99.90;;;;;;5126756;27;19912;-54
2022/08/16 05:27:58;;;;;;;;;;;15.80;99.90;;;;;;5125179;27;19916;-56
2022/08/16 05:30:38;;;;;;;;;;;16.00;99.90;;;;;;5124530;27;19919;-54
2022/08/16 05:33:26;;;;;;;;;;;16.10;99.90;;;;;;5125523;27;19912;-55
2022/08/16 05:36:08;;;;;;;;;;;16.20;99.90;;;;;;5104711;27;19926;-55
2022/08/16 05:39:02;;;;;;;;;;;16.40;99.90;;;;;;5124661;27;19949;-56
2022/08/16 05:41:41;;;;;;;;;;;16.60;99.90;;;;;;5104153;27;20377;-55
2022/08/16 05:44:22;;;;;;;;;;;16.80;99.90;;;;;;5125522;27;19918;-55
2022/08/16 05:47:03;;;;;;;;;;;16.90;99.90;;;;;;5125585;27;19912;-56
2022/08/16 05:49:44;;;;;;;;;;;17.10;99.90;;;;;;5100583;27;19946;-56
2022/08/16 05:52:25;;;;;;;;;;;17.30;99.90;;;;;;5125253;27;19919;-54
2022/08/16 05:55:08;;;;;;;;;;;17.50;99.90;;;;;;5104666;27;19912;-56
2022/08/16 05:57:48;;;;;;;;;;;17.80;99.90;;;;;;5104250;27;20323;-55
2022/08/16 06:00:28;;;;;;;;;;;18.00;99.90;;;;;;5114653;27;20288;-56
2022/08/16 06:03:10;;;;;;;;;;;18.20;99.90;;;;;;5125641;27;19929;-56
2022/08/16 06:06:12;;;;;;;;;;;18.40;99.90;;;;;;5125122;27;20296;-53
2022/08/16 06:08:52;;;;;;;;;;;18.60;99.90;;;;;;5103894;27;20052;-54
2022/08/16 06:11:31;;;;;;;;;;;18.70;99.90;;;;;;5124990;27;19915;-56
2022/08/16 06:14:14;;;;;;;;;;;18.90;99.90;;;;;;5125802;27;19911;-56
2022/08/16 06:16:57;;;;;;;;;;;19.00;99.90;;;;;;5125242;27;19912;-56
2022/08/16 06:19:37;;;;;;;;;;;19.20;99.90;;;;;;5125049;27;19915;-56
2022/08/16 06:22:29;;;;;;;;;;;19.30;99.90;;;;;;5125108;27;19922;-56
2022/08/16 06:25:10;;;;;;;;;;;19.50;99.90;;;;;;5125273;27;19915;-54
2022/08/16 06:27:51;;;;;;;;;;;19.70;99.90;;;;;;5145845;27;19916;-54
2022/08/16 06:30:32;;;;;;;;;;;19.70;99.90;;;;;;5093808;27;19916;-55
2022/08/16 06:33:13;;;;;;;;;;;19.90;99.90;;;;;;5113904;27;20395;-56
2022/08/16 06:35:55;;;;;;;;;;;20.00;99.90;;;;;;5113597;27;19916;-56
2022/08/16 06:38:37;;;;;;;;;;;20.10;99.90;;;;;;5124200;27;19912;-55
2022/08/16 06:41:26;;;;;;;;;;;20.20;99.90;;;;;;5124375;27;20357;-56
2022/08/16 06:44:09;;;;;;;;;;;20.30;99.90;;;;;;5104967;27;19954;-54
2022/08/16 06:46:49;;;;;;;;;;;20.40;99.90;;;;;;5124983;27;19919;-56
2022/08/16 06:49:31;;;;;;;;;;;20.50;99.90;;;;;;5122337;27;19912;-56
2022/08/16 06:52:10;;;;;;;;;;;20.50;99.90;;;;;;5125370;27;20304;-56
2022/08/16 06:54:52;;;;;;;;;;;20.60;99.90;;;;;;5126576;27;19924;-56
2022/08/16 06:57:34;;;;;;;;;;;20.70;99.90;;;;;;5124624;27;20411;-56
2022/08/16 07:00:15;;;;;;;;;;;20.80;99.90;;;;;;5104293;27;19920;-56
2022/08/16 07:03:05;;;;;;;;;;;20.90;99.90;;;;;;5104636;27;20414;-54
2022/08/16 07:05:46;;;;;;;;;;;20.90;99.90;;;;;;5125263;27;19934;-56
2022/08/16 07:08:33;;;;;;;;;;;21.00;99.90;;;;;;5104444;27;19919;-56
2022/08/16 07:11:16;;;;;;;;;;;21.10;99.90;;;;;;5125583;27;19915;-56
2022/08/16 07:13:56;;;;;;;;;;;21.20;99.90;;;;;;5125633;27;19912;-56
2022/08/16 07:16:40;;;;;;;;;;;21.30;99.90;;;;;;5125287;27;19912;-56
2022/08/16 07:19:21;;;;;;;;;;;21.30;99.90;;;;;;5124340;27;19912;-54
2022/08/16 07:22:01;;;;;;;;;;;21.40;99.90;;;;;;5162851;22;20355;-52
2022/08/16 07:24:43;;;;;;;;;;;21.50;99.90;;;;;;5126604;27;19922;-55
2022/08/16 07:27:24;;;;;;;;;;;21.60;99.90;;;;;;5125199;27;19923;-54
2022/08/16 07:30:06;;;;;;;;;;;21.70;99.90;;;;;;5104981;27;19954;-54
2022/08/16 07:32:49;;;;;;;;;;;21.70;99.90;;;;;;5104634;27;20393;-55
2022/08/16 07:35:29;;;;;;;;;;;21.80;99.90;;;;;;5125958;27;19934;-55
2022/08/16 07:38:09;;;;;;;;;;;21.80;99.90;;;;;;5125784;27;20351;-55
2022/08/16 07:40:56;;;;;;;;;;;21.90;99.90;;;;;;5124821;27;19957;-55
2022/08/16 07:43:37;;;;;;;;;;;21.90;99.90;;;;;;5125486;27;19918;-54
2022/08/16 07:46:18;;;;;;;;;;;21.90;99.90;;;;;;5125427;27;19911;-55
2022/08/16 07:49:00;;;;;;;;;;;22.00;99.90;;;;;;5124531;27;19912;-56
2022/08/16 07:51:41;;;;;;;;;;;22.00;99.90;;;;;;5111304;27;19912;-55
2022/08/16 07:54:21;;;;;;;;;;;22.10;99.90;;;;;;5125541;27;20386;-55
2022/08/16 07:57:02;;;;;;;;;;;22.10;99.90;;;;;;5125463;27;19916;-55
2022/08/16 07:59:44;;;;;;;;;;;22.10;99.90;;;;;;5125506;27;19912;-55
2022/08/16 08:02:24;;;;;;;;;;;22.20;99.90;;;;;;5124463;27;19918;-55
2022/08/16 08:05:09;;;;;;;;;;;22.40;99.90;;;;;;5125202;27;19911;-55
2022/08/16 08:07:52;;;;;;;;;;;22.40;99.90;;;;;;5104789;27;19946;-55
2022/08/16 08:10:33;;;;;;;;;;;22.40;99.90;;;;;;5099661;27;20325;-55
2022/08/16 08:13:15;;;;;;;;;;;22.40;99.90;;;;;;5105939;27;19962;-55
2022/08/16 08:15:56;;;;;;;;;;;22.50;99.90;;;;;;5126341;27;19919;-55
2022/08/16 08:18:35;;;;;;;;;;;22.70;99.90;;;;;;5125810;27;19912;-55
2022/08/16 08:21:18;;;;;;;;;;;22.90;99.90;;;;;;5125605;27;20172;-55
2022/08/16 08:23:58;;;;;;;;;;;23.00;99.90;;;;;;5125715;27;19915;-55
2022/08/16 08:26:40;;;;;;;;;;;23.20;99.90;;;;;;5106049;27;20292;-55
2022/08/16 08:29:21;;;;;;;;;;;23.20;99.90;;;;;;5146195;27;20134;-55
2022/08/16 08:32:03;;;;;;;;;;;23.40;99.90;;;;;;5125436;27;19912;-55
2022/08/16 08:34:44;;;;;;;;;;;23.60;99.90;;;;;;5125849;27;19916;-55
2022/08/16 08:37:26;;;;;;;;;;;23.80;99.90;;;;;;5125429;27;19941;-55
2022/08/16 08:40:11;;;;;;;;;;;24.10;99.90;;;;;;5122610;27;19916;-55
2022/08/16 08:42:51;;;;;;;;;;;24.50;99.90;;;;;;5084462;28;19913;-55
2022/08/16 08:45:33;;;;;;;;;;;24.90;99.90;;;;;;5125428;27;20146;-55
2022/08/16 08:48:13;;;;;;;;;;;25.10;99.90;;;;;;5125136;27;19911;-55
2022/08/16 08:50:52;;;;;;;;;;;25.20;99.90;;;;;;5117556;27;20280;-55
2022/08/16 08:53:33;;;;;;;;;;;25.40;94.00;;;;;;5132981;27;19934;-55
2022/08/16 08:56:14;;;;;;;;;;;25.70;93.00;;;;;;5124587;27;19916;-56
2022/08/16 08:58:56;;;;;;;;;;;26.00;90.40;;;;;;5124344;27;19929;-55
2022/08/16 09:01:51;;;;;;;;;;;26.20;90.70;;;;;;5144949;27;19911;-55
2022/08/16 09:04:33;;;;;;;;;;;26.60;79.20;;;;;;5164478;27;19911;-55
2022/08/16 09:07:14;;;;;;;;;;;26.80;78.20;;;;;;5105146;27;19927;-54
2022/08/16 09:09:54;;;;;;;;;;;26.60;78.10;;;;;;5124888;27;19926;-55
2022/08/16 09:12:35;;;;;;;;;;;26.50;78.20;;;;;;5105870;27;19938;-55
2022/08/16 09:15:20;;;;;;;;;;;26.50;75.00;;;;;;5125820;27;19912;-55
2022/08/16 09:18:02;;;;;;;;;;;26.40;72.20;;;;;;5125301;27;19931;-55
2022/08/16 09:20:43;;;;;;;;;;;26.60;72.70;;;;;;5118844;27;19912;-55
2022/08/16 09:23:25;;;;;;;;;;;26.90;69.00;;;;;;5125944;27;19969;-55
2022/08/16 09:26:07;;;;;;;;;;;26.80;67.40;;;;;;5125546;27;19912;-56
2022/08/16 09:28:47;;;;;;;;;;;26.30;74.90;;;;;;5125176;27;20372;-55
2022/08/16 09:31:33;;;;;;;;;;;26.20;73.00;;;;;;5112354;27;19919;-55
2022/08/16 09:34:13;;;;;;;;;;;26.10;72.80;;;;;;5125432;27;19912;-55
2022/08/16 09:36:56;;;;;;;;;;;26.00;72.40;;;;;;5125778;27;19912;-55
2022/08/16 09:39:36;;;;;;;;;;;25.60;73.90;;;;;;5104746;27;20191;-55
2022/08/16 09:42:16;;;;;;;;;;;25.20;76.90;;;;;;5125221;27;19922;-55
2022/08/16 09:44:56;;;;;;;;;;;24.90;82.60;;;;;;5125535;27;19925;-55
2022/08/16 09:47:38;;;;;;;;;;;24.60;87.10;;;;;;5125603;27;19918;-55
2022/08/16 09:50:18;;;;;;;;;;;24.50;87.00;;;;;;5101053;27;19919;-55
2022/08/16 09:52:58;;;;;;;;;;;24.40;91.90;;;;;;5121611;27;19912;-55
2022/08/16 09:55:38;;;;;;;;;;;24.40;91.90;;;;;;5124698;27;19915;-55
2022/08/16 09:58:18;;;;;;;;;;;24.60;93.70;;;;;;5120997;27;20268;-55
2022/08/16 10:00:59;;;;;;;;;;;25.20;90.90;;;;;;5123551;27;19916;-55
2022/08/16 10:03:39;;;;;;;;;;;25.50;79.20;;;;;;5106454;27;19912;-55
2022/08/16 10:06:20;;;;;;;;;;;25.60;84.10;;;;;;5105468;27;20397;-55
2022/08/16 10:09:00;;;;;;;;;;;25.60;79.20;;;;;;5124744;27;19918;-55
2022/08/16 10:14:40;;;;;;;;;;;25.80;73.20;;;;;;5125766;27;20184;-55
2022/08/16 10:17:21;;;;;;;;;;;25.70;73.80;;;;;;5104948;27;20184;-55
2022/08/16 10:20:00;;;;;;;;;;;25.80;73.90;;;;;;5124771;27;20296;-55
2022/08/16 10:22:40;;;;;;;;;;;25.80;71.10;;;;;;5126192;27;20430;-55
2022/08/16 10:25:21;;;;;;;;;;;26.10;69.30;;;;;;5125837;27;19911;-55
2022/08/16 10:28:02;;;;;;;;;;;26.30;67.80;;;;;;5154535;27;19942;-55
2022/08/16 10:30:42;;;;;;;;;;;26.30;66.50;;;;;;5124733;27;20361;-55
2022/08/16 10:33:23;;;;;;;;;;;26.40;65.90;;;;;;5105217;27;19916;-56
2022/08/16 10:36:04;;;;;;;;;;;26.50;64.50;;;;;;5125832;27;19912;-56
2022/08/16 10:38:45;;;;;;;;;;;26.60;65.60;;;;;;5125271;27;21454;-55
2022/08/16 10:41:25;;;;;;;;;;;26.80;60.30;;;;;;5125020;27;19969;-56
2022/08/16 10:44:06;;;;;;;;;;;27.20;58.70;;;;;;5126135;27;20311;-56
2022/08/16 10:46:45;;;;;;;;;;;27.50;57.00;;;;;;5125394;27;19977;-56
2022/08/16 10:49:25;;;;;;;;;;;28.00;56.10;;;;;;5125118;27;19930;-55
2022/08/16 10:52:05;;;;;;;;;;;28.30;54.10;;;;;;5105853;27;19912;-55
2022/08/16 10:54:46;;;;;;;;;;;28.60;54.90;;;;;;5084561;28;19969;-55
2022/08/16 10:57:26;;;;;;;;;;;28.60;52.40;;;;;;5125552;27;19922;-56
2022/08/16 11:00:11;;;;;;;;;;;28.50;53.60;;;;;;5125244;27;19919;-55
2022/08/16 11:02:52;;;;;;;;;;;28.60;52.00;;;;;;5145407;27;19915;-55
2022/08/16 11:05:33;;;;;;;;;;;28.70;51.70;;;;;;5084873;28;19913;-55
2022/08/16 11:08:13;;;;;;;;;;;28.40;52.60;;;;;;5126257;27;19912;-57
2022/08/16 11:10:53;;;;;;;;;;;28.30;54.70;;;;;;5104823;27;19926;-55
2022/08/16 11:13:33;;;;;;;;;;;28.50;53.00;;;;;;5125872;27;19918;-55
2022/08/16 11:16:13;;;;;;;;;;;28.80;53.10;;;;;;5125634;27;19912;-55
2022/08/16 11:18:53;;;;;;;;;;;28.80;50.30;;;;;;5104305;27;19953;-55
2022/08/16 11:21:32;;;;;;;;;;;28.70;49.70;;;;;;5125615;27;19915;-54
2022/08/16 11:24:13;;;;;;;;;;;28.80;50.00;;;;;;5125798;27;20269;-55
2022/08/16 11:26:54;;;;;;;;;;;29.40;50.10;;;;;;5125800;27;19915;-54
2022/08/16 11:29:34;;;;;;;;;;;30.00;46.80;;;;;;5125208;27;19912;-55
2022/08/16 11:32:13;;;;;;;;;;;29.90;47.40;;;;;;5103167;27;19912;-55
2022/08/16 11:34:55;;;;;;;;;;;29.80;46.80;;;;;;5125743;27;20369;-56
2022/08/16 11:37:35;;;;;;;;;;;29.70;49.10;;;;;;5125812;27;19918;-55
2022/08/16 11:40:15;;;;;;;;;;;29.50;47.20;;;;;;5101407;27;19953;-54
2022/08/16 11:42:56;;;;;;;;;;;29.50;46.40;;;;;;5126279;27;19912;-54
2022/08/16 11:45:36;;;;;;;;;;;29.60;46.30;;;;;;5104960;27;19912;-55
2022/08/16 11:48:17;;;;;;;;;;;29.70;46.50;;;;;;5125706;27;19912;-56
2022/08/16 11:50:57;;;;;;;;;;;29.90;44.20;;;;;;5096170;27;19912;-55
2022/08/16 11:53:37;;;;;;;;;;;30.20;44.00;;;;;;5125361;27;19918;-55
2022/08/16 11:56:17;;;;;;;;;;;30.20;43.90;;;;;;5125875;27;19912;-55
2022/08/16 11:58:57;;;;;;;;;;;30.30;43.30;;;;;;5125397;27;20133;-55
2022/08/16 12:01:36;;;;;;;;;;;30.40;43.80;;;;;;5111374;27;19916;-55
2022/08/16 12:04:16;;;;;;;;;;;30.50;42.40;;;;;;5120789;27;20327;-56
2022/08/16 12:06:56;;;;;;;;;;;30.40;41.60;;;;;;5122354;27;19911;-55
2022/08/16 12:09:36;;;;;;;;;;;30.40;41.70;;;;;;5124445;27;19915;-55
2022/08/16 12:12:16;;;;;;;;;;;31.00;41.70;;;;;;5104957;27;19945;-56
2022/08/16 12:14:55;;;;;;;;;;;31.50;39.30;;;;;;5125941;27;20151;-55
2022/08/16 12:17:36;;;;;;;;;;;31.40;39.60;;;;;;5124886;27;20292;-55
2022/08/16 12:20:19;;;;;;;;;;;31.00;40.60;;;;;;5122566;27;19925;-55
2022/08/16 12:23:00;;;;;;;;;;;30.30;41.50;;;;;;5155020;27;19912;-56
2022/08/16 12:25:40;;;;;;;;;;;29.90;43.50;;;;;;5126968;27;19911;-55
2022/08/16 12:28:19;;;;;;;;;;;30.20;42.70;;;;;;5126209;27;19916;-55
2022/08/16 12:30:59;;;;;;;;;;;30.60;42.20;;;;;;5125606;27;19912;-56
2022/08/16 12:33:42;;;;;;;;;;;30.60;41.30;;;;;;5102502;27;20374;-55
2022/08/16 12:36:23;;;;;;;;;;;30.40;39.90;;;;;;5098315;27;20381;-55
2022/08/16 12:39:04;;;;;;;;;;;30.00;41.10;;;;;;5124132;27;19918;-55
2022/08/16 12:41:45;;;;;;;;;;;29.90;41.70;;;;;;5113873;27;20415;-54
2022/08/16 12:44:26;;;;;;;;;;;30.20;41.20;;;;;;5112809;27;20374;-56
2022/08/16 12:50:04;;;;;;;;;;;30.90;39.30;;;;;;5120654;27;20381;-55
2022/08/16 12:52:45;;;;;;;;;;;31.10;38.90;;;;;;5117707;27;20040;-55
2022/08/16 12:55:25;;;;;;;;;;;30.90;38.40;;;;;;5124420;27;19934;-55
2022/08/16 12:58:05;;;;;;;;;;;30.50;38.30;;;;;;5125595;27;20295;-56
2022/08/16 13:00:48;;;;;;;;;;;30.20;39.50;;;;;;5118383;27;19916;-56
2022/08/16 13:03:29;;;;;;;;;;;29.90;40.50;;;;;;5125394;27;19918;-55
2022/08/16 13:06:09;;;;;;;;;;;30.00;39.90;;;;;;5105085;27;19911;-55
2022/08/16 13:08:49;;;;;;;;;;;30.50;39.00;;;;;;5124805;27;19937;-55
2022/08/16 13:11:34;;;;;;;;;;;30.90;37.40;;;;;;5145874;27;20535;-55
2022/08/16 13:14:15;;;;;;;;;;;30.80;37.70;;;;;;5126299;27;20290;-55
2022/08/16 13:16:55;;;;;;;;;;;30.60;38.20;;;;;;5125657;27;19938;-55
2022/08/16 13:19:47;;;;;;;;;;;30.60;39.40;;;;;;5124327;27;19918;-56
2022/08/16 13:22:26;;;;;;;;;;;30.60;38.60;;;;;;5085521;28;20419;-55
2022/08/16 13:25:09;;;;;;;;;;;30.40;38.70;;;;;;5125826;27;19922;-55
2022/08/16 13:27:50;;;;;;;;;;;30.30;39.90;;;;;;5125157;27;19918;-55
2022/08/16 13:30:31;;;;;;;;;;;30.10;39.60;;;;;;5120706;27;19912;-55
2022/08/16 13:33:15;;;;;;;;;;;30.10;39.10;;;;;;5125863;27;19911;-55
2022/08/16 13:35:57;;;;;;;;;;;30.30;39.80;;;;;;5125463;27;19917;-55
2022/08/16 13:38:46;;;;;;;;;;;30.30;39.60;;;;;;5124973;27;20442;-55
2022/08/16 13:41:26;;;;;;;;;;;30.40;40.00;;;;;;5124061;27;19922;-55
2022/08/16 13:44:07;;;;;;;;;;;30.20;38.40;;;;;;5126079;27;19916;-55
2022/08/16 13:46:48;;;;;;;;;;;30.10;39.50;;;;;;5125115;27;19915;-55
2022/08/16 13:49:29;;;;;;;;;;;30.10;37.60;;;;;;5124254;27;19911;-55
2022/08/16 13:52:09;;;;;;;;;;;29.90;37.70;;;;;;5084996;28;19913;-55
2022/08/16 13:54:50;;;;;;;;;;;29.90;38.00;;;;;;5125374;27;20381;-55
2022/08/16 13:57:30;;;;;;;;;;;30.30;38.60;;;;;;5124979;27;19911;-56
2022/08/16 14:00:10;;;;;;;;;;;30.50;37.30;;;;;;5104936;27;19953;-56
2022/08/16 14:02:52;;;;;;;;;;;30.60;36.50;;;;;;5125751;27;19918;-56
2022/08/16 14:05:32;;;;;;;;;;;30.50;38.90;;;;;;5125484;27;20304;-55
2022/08/16 14:08:12;;;;;;;;;;;30.60;39.20;;;;;;5124950;27;20316;-55
2022/08/16 14:10:52;;;;;;;;;;;30.50;37.10;;;;;;5125075;27;20399;-55
2022/08/16 14:13:32;;;;;;;;;;;30.40;36.90;;;;;;5124972;27;20384;-56
2022/08/16 14:16:13;;;;;;;;;;;30.00;37.50;;;;;;5125315;27;20326;-56
2022/08/16 14:18:53;;;;;;;;;;;29.90;36.40;;;;;;5124309;27;20292;-55
2022/08/16 14:21:33;;;;;;;;;;;30.00;36.90;;;;;;5144163;27;19912;-55
2022/08/16 14:24:14;;;;;;;;;;;29.90;36.30;;;;;;5126080;27;19912;-55
2022/08/16 14:26:54;;;;;;;;;;;30.00;35.80;;;;;;5125479;27;19933;-56
2022/08/16 14:29:35;;;;;;;;;;;30.00;36.70;;;;;;5124775;27;20466;-56
2022/08/16 14:32:16;;;;;;;;;;;30.30;36.30;;;;;;5152423;27;19917;-56
2022/08/16 14:34:56;;;;;;;;;;;30.60;35.00;;;;;;5126226;27;19916;-55
2022/08/16 14:37:39;;;;;;;;;;;30.60;35.30;;;;;;5084463;28;19926;-55
2022/08/16 14:40:21;;;;;;;;;;;30.80;35.90;;;;;;5121289;27;20139;-55
2022/08/16 14:43:01;;;;;;;;;;;30.80;34.20;;;;;;5105191;27;20320;-55
2022/08/16 14:45:41;;;;;;;;;;;30.90;33.90;;;;;;5125242;27;20335;-56
2022/08/16 14:48:21;;;;;;;;;;;31.20;32.70;;;;;;5104584;27;19922;-55
2022/08/16 14:51:02;;;;;;;;;;;31.60;33.30;;;;;;5116054;27;19922;-55
2022/08/16 14:53:43;;;;;;;;;;;31.50;37.20;;;;;;5084614;28;20381;-56
2022/08/16 14:56:24;;;;;;;;;;;31.30;33.20;;;;;;5125342;27;19912;-55
2022/08/16 14:59:03;;;;;;;;;;;31.00;33.80;;;;;;5153807;27;19921;-56
2022/08/16 15:01:44;;;;;;;;;;;30.90;37.50;;;;;;5125663;27;19916;-55
2022/08/16 15:04:25;;;;;;;;;;;30.70;33.90;;;;;;5125894;27;19918;-55
2022/08/16 15:07:04;;;;;;;;;;;30.70;34.30;;;;;;5125370;27;19912;-56
2022/08/16 15:09:45;;;;;;;;;;;30.80;35.00;;;;;;5124860;27;19911;-56
2022/08/16 15:12:26;;;;;;;;;;;30.90;34.00;;;;;;5125907;27;19912;-56
2022/08/16 15:15:10;;;;;;;;;;;31.20;36.10;;;;;;5105172;27;20590;-56
2022/08/16 15:17:50;;;;;;;;;;;31.30;35.50;;;;;;5104073;27;19958;-55
2022/08/16 15:20:31;;;;;;;;;;;31.00;33.90;;;;;;5120745;27;20373;-55
2022/08/16 15:23:11;;;;;;;;;;;31.00;35.20;;;;;;5125566;27;19916;-55
2022/08/16 15:25:52;;;;;;;;;;;30.90;34.50;;;;;;5106469;27;19916;-56
2022/08/16 15:28:35;;;;;;;;;;;30.60;34.60;;;;;;5125107;27;19915;-55
2022/08/16 15:31:16;;;;;;;;;;;30.40;34.70;;;;;;5115533;27;20381;-55
2022/08/16 15:33:55;;;;;;;;;;;30.30;34.60;;;;;;5125769;27;19926;-55
2022/08/16 15:36:35;;;;;;;;;;;30.30;34.20;;;;;;5125218;27;19929;-56
2022/08/16 15:39:15;;;;;;;;;;;30.10;34.60;;;;;;5125017;27;19918;-55
2022/08/16 15:41:57;;;;;;;;;;;30.20;37.10;;;;;;5125003;27;19934;-55